sensor_id;sensor_type;location;lat;lon;timestamp;temperature;humidity
69225;DHT22;56333;51.306;17.056;2024-02-23T00:01:43;10.42;78.35
69225;DHT22;56333;51.306;17.056;2024-02-23T00:03:12;10.42;78.38
69225;DHT22;56333;51.306;17.056;2024-02-23T00:04:40;10.43;78.47
69225;DHT22;56333;51.306;17.056;2024-02-23T00:06:09;10.44;78.43
69225;DHT22;56333;51.306;17.056;2024-02-23T00:07:38;10.44;78.45
69225;DHT22;56333;51.306;17.056;2024-02-23T00:09:07;10.46;78.43
69225;DHT22;56333;51.306;17.056;2024-02-23T00:10:35;10.45;78.50
69225;DHT22;56333;51.306;17.056;2024-02-23T00:12:04;10.47;78.53
69225;DHT22;56333;51.306;17.056;2024-02-23T00:13:33;10.46;78.57
69225;DHT22;56333;51.306;17.056;2024-02-23T00:15:02;10.47;78.50
69225;DHT22;56333;51.306;17.056;2024-02-23T00:16:32;10.48;78.47
69225;DHT22;56333;51.306;17.056;2024-02-23T00:18:06;10.47;78.55
69225;DHT22;56333;51.306;17.056;2024-02-23T00:19:37;10.47;78.50
69225;DHT22;56333;51.306;17.056;2024-02-23T00:21:05;10.48;78.60
69225;DHT22;56333;51.306;17.056;2024-02-23T00:22:35;10.45;78.50
69225;DHT22;56333;51.306;17.056;2024-02-23T00:24:04;10.46;78.55
69225;DHT22;56333;51.306;17.056;2024-02-23T00:25:33;10.47;78.68
69225;DHT22;56333;51.306;17.056;2024-02-23T00:27:02;10.48;78.60
69225;DHT22;56333;51.306;17.056;2024-02-23T00:28:31;10.51;78.63
69225;DHT22;56333;51.306;17.056;2024-02-23T00:29:59;10.49;78.55
69225;DHT22;56333;51.306;17.056;2024-02-23T00:31:28;10.51;78.55
69225;DHT22;56333;51.306;17.056;2024-02-23T00:32:56;10.51;78.60
69225;DHT22;56333;51.306;17.056;2024-02-23T00:34:25;10.52;78.70
69225;DHT22;56333;51.306;17.056;2024-02-23T00:35:55;10.53;78.63
69225;DHT22;56333;51.306;17.056;2024-02-23T00:37:24;10.54;78.78
69225;DHT22;56333;51.306;17.056;2024-02-23T00:38:52;10.53;78.90
69225;DHT22;56333;51.306;17.056;2024-02-23T00:40:21;10.52;78.95
69225;DHT22;56333;51.306;17.056;2024-02-23T00:41:52;10.51;78.90
69225;DHT22;56333;51.306;17.056;2024-02-23T00:43:21;10.52;78.90
69225;DHT22;56333;51.306;17.056;2024-02-23T00:44:50;10.52;79.03
69225;DHT22;56333;51.306;17.056;2024-02-23T00:46:18;10.51;79.00
69225;DHT22;56333;51.306;17.056;2024-02-23T00:47:46;10.52;79.03
69225;DHT22;56333;51.306;17.056;2024-02-23T00:49:15;10.53;79.13
69225;DHT22;56333;51.306;17.056;2024-02-23T00:50:43;10.53;79.20
69225;DHT22;56333;51.306;17.056;2024-02-23T00:52:12;10.53;79.10
69225;DHT22;56333;51.306;17.056;2024-02-23T00:53:41;10.55;79.18
69225;DHT22;56333;51.306;17.056;2024-02-23T00:55:10;10.56;79.13
69225;DHT22;56333;51.306;17.056;2024-02-23T00:56:38;10.55;79.10
69225;DHT22;56333;51.306;17.056;2024-02-23T00:58:07;10.56;79.28
69225;DHT22;56333;51.306;17.056;2024-02-23T00:59:36;10.56;79.28
69225;DHT22;56333;51.306;17.056;2024-02-23T01:01:05;10.55;79.15
69225;DHT22;56333;51.306;17.056;2024-02-23T01:02:33;10.56;79.30
69225;DHT22;56333;51.306;17.056;2024-02-23T01:04:02;10.55;79.30
69225;DHT22;56333;51.306;17.056;2024-02-23T01:05:31;10.55;79.32
69225;DHT22;56333;51.306;17.056;2024-02-23T01:07:00;10.55;79.28
69225;DHT22;56333;51.306;17.056;2024-02-23T01:08:29;10.56;79.28
69225;DHT22;56333;51.306;17.056;2024-02-23T01:09:58;10.52;79.38
69225;DHT22;56333;51.306;17.056;2024-02-23T01:11:28;10.55;79.30
69225;DHT22;56333;51.306;17.056;2024-02-23T01:12:56;10.54;79.30
69225;DHT22;56333;51.306;17.056;2024-02-23T01:14:25;10.54;79.25
69225;DHT22;56333;51.306;17.056;2024-02-23T01:15:54;10.54;79.20
69225;DHT22;56333;51.306;17.056;2024-02-23T01:17:22;10.55;79.10
69225;DHT22;56333;51.306;17.056;2024-02-23T01:18:51;10.55;79.10
69225;DHT22;56333;51.306;17.056;2024-02-23T01:20:19;10.56;79.05
69225;DHT22;56333;51.306;17.056;2024-02-23T01:21:48;10.60;78.85
69225;DHT22;56333;51.306;17.056;2024-02-23T01:23:23;10.60;78.75
69225;DHT22;56333;51.306;17.056;2024-02-23T01:24:52;10.64;78.65
69225;DHT22;56333;51.306;17.056;2024-02-23T01:26:20;10.65;78.60
69225;DHT22;56333;51.306;17.056;2024-02-23T01:27:49;10.67;78.50
69225;DHT22;56333;51.306;17.056;2024-02-23T01:29:17;10.70;78.50
69225;DHT22;56333;51.306;17.056;2024-02-23T01:30:46;10.73;78.45
69225;DHT22;56333;51.306;17.056;2024-02-23T01:32:15;10.76;78.45
69225;DHT22;56333;51.306;17.056;2024-02-23T01:33:43;10.77;78.40
69225;DHT22;56333;51.306;17.056;2024-02-23T01:35:13;10.78;78.50
69225;DHT22;56333;51.306;17.056;2024-02-23T01:36:42;10.78;78.50
69225;DHT22;56333;51.306;17.056;2024-02-23T01:38:10;10.78;78.53
69225;DHT22;56333;51.306;17.056;2024-02-23T01:39:43;10.79;78.47
69225;DHT22;56333;51.306;17.056;2024-02-23T01:41:11;10.77;78.45
69225;DHT22;56333;51.306;17.056;2024-02-23T01:42:40;10.76;78.40
69225;DHT22;56333;51.306;17.056;2024-02-23T01:44:08;10.77;78.40
69225;DHT22;56333;51.306;17.056;2024-02-23T01:45:37;10.76;78.43
69225;DHT22;56333;51.306;17.056;2024-02-23T01:47:06;10.76;78.43
69225;DHT22;56333;51.306;17.056;2024-02-23T01:48:35;10.76;78.40
69225;DHT22;56333;51.306;17.056;2024-02-23T01:50:04;10.74;78.45
69225;DHT22;56333;51.306;17.056;2024-02-23T01:51:36;10.73;78.50
69225;DHT22;56333;51.306;17.056;2024-02-23T01:53:05;10.72;78.45
69225;DHT22;56333;51.306;17.056;2024-02-23T01:54:34;10.70;78.60
69225;DHT22;56333;51.306;17.056;2024-02-23T01:56:03;10.68;78.63
69225;DHT22;56333;51.306;17.056;2024-02-23T01:57:37;10.67;78.53
69225;DHT22;56333;51.306;17.056;2024-02-23T01:59:06;10.66;78.68
69225;DHT22;56333;51.306;17.056;2024-02-23T02:00:37;10.66;78.55
69225;DHT22;56333;51.306;17.056;2024-02-23T02:02:06;10.68;78.60
69225;DHT22;56333;51.306;17.056;2024-02-23T02:03:35;10.69;78.50
69225;DHT22;56333;51.306;17.056;2024-02-23T02:05:05;10.70;78.47
69225;DHT22;56333;51.306;17.056;2024-02-23T02:06:34;10.69;78.30
69225;DHT22;56333;51.306;17.056;2024-02-23T02:08:05;10.71;78.35
69225;DHT22;56333;51.306;17.056;2024-02-23T02:09:34;10.71;78.28
69225;DHT22;56333;51.306;17.056;2024-02-23T02:11:03;10.72;78.28
69225;DHT22;56333;51.306;17.056;2024-02-23T02:12:31;10.74;78.20
69225;DHT22;56333;51.306;17.056;2024-02-23T02:14:00;10.76;78.20
69225;DHT22;56333;51.306;17.056;2024-02-23T02:15:28;10.74;78.13
69225;DHT22;56333;51.306;17.056;2024-02-23T02:16:57;10.74;78.18
69225;DHT22;56333;51.306;17.056;2024-02-23T02:18:26;10.72;78.22
69225;DHT22;56333;51.306;17.056;2024-02-23T02:19:54;10.73;78.20
69225;DHT22;56333;51.306;17.056;2024-02-23T02:21:25;10.72;78.22
69225;DHT22;56333;51.306;17.056;2024-02-23T02:22:53;10.70;78.22
69225;DHT22;56333;51.306;17.056;2024-02-23T02:24:22;10.70;78.18
69225;DHT22;56333;51.306;17.056;2024-02-23T02:25:54;10.67;78.20
69225;DHT22;56333;51.306;17.056;2024-02-23T02:27:23;10.67;78.20
69225;DHT22;56333;51.306;17.056;2024-02-23T02:28:52;10.66;78.18
69225;DHT22;56333;51.306;17.056;2024-02-23T02:30:20;10.66;78.15
69225;DHT22;56333;51.306;17.056;2024-02-23T02:31:49;10.65;78.10
69225;DHT22;56333;51.306;17.056;2024-02-23T02:33:17;10.66;78.07
69225;DHT22;56333;51.306;17.056;2024-02-23T02:34:47;10.65;78.07
69225;DHT22;56333;51.306;17.056;2024-02-23T02:36:15;10.64;78.05
69225;DHT22;56333;51.306;17.056;2024-02-23T02:37:43;10.63;78.03
69225;DHT22;56333;51.306;17.056;2024-02-23T02:39:13;10.61;78.10
69225;DHT22;56333;51.306;17.056;2024-02-23T02:40:41;10.59;78.10
69225;DHT22;56333;51.306;17.056;2024-02-23T02:42:10;10.58;78.00
69225;DHT22;56333;51.306;17.056;2024-02-23T02:43:39;10.58;77.97
69225;DHT22;56333;51.306;17.056;2024-02-23T02:45:08;10.60;77.93
69225;DHT22;56333;51.306;17.056;2024-02-23T02:46:37;10.59;77.82
69225;DHT22;56333;51.306;17.056;2024-02-23T02:48:07;10.60;77.80
69225;DHT22;56333;51.306;17.056;2024-02-23T02:49:35;10.56;77.80
69225;DHT22;56333;51.306;17.056;2024-02-23T02:51:06;10.53;77.80
69225;DHT22;56333;51.306;17.056;2024-02-23T02:52:34;10.53;77.72
69225;DHT22;56333;51.306;17.056;2024-02-23T02:54:03;10.55;77.70
69225;DHT22;56333;51.306;17.056;2024-02-23T02:55:32;10.56;77.55
69225;DHT22;56333;51.306;17.056;2024-02-23T02:57:00;10.56;77.50
69225;DHT22;56333;51.306;17.056;2024-02-23T02:58:29;10.56;77.40
69225;DHT22;56333;51.306;17.056;2024-02-23T02:59:58;10.56;77.47
69225;DHT22;56333;51.306;17.056;2024-02-23T03:01:28;10.56;77.43
69225;DHT22;56333;51.306;17.056;2024-02-23T03:02:57;10.57;77.38
69225;DHT22;56333;51.306;17.056;2024-02-23T03:04:25;10.59;77.30
69225;DHT22;56333;51.306;17.056;2024-02-23T03:05:53;10.59;77.20
69225;DHT22;56333;51.306;17.056;2024-02-23T03:07:22;10.61;77.20
69225;DHT22;56333;51.306;17.056;2024-02-23T03:08:50;10.60;77.10
69225;DHT22;56333;51.306;17.056;2024-02-23T03:10:19;10.63;77.03
69225;DHT22;56333;51.306;17.056;2024-02-23T03:11:48;10.62;77.05
69225;DHT22;56333;51.306;17.056;2024-02-23T03:13:16;10.63;77.00
69225;DHT22;56333;51.306;17.056;2024-02-23T03:14:44;10.65;77.00
69225;DHT22;56333;51.306;17.056;2024-02-23T03:16:17;10.67;76.82
69225;DHT22;56333;51.306;17.056;2024-02-23T03:17:50;10.65;76.68
69225;DHT22;56333;51.306;17.056;2024-02-23T03:19:19;10.68;76.70
69225;DHT22;56333;51.306;17.056;2024-02-23T03:20:47;10.69;76.65
69225;DHT22;56333;51.306;17.056;2024-02-23T03:22:16;10.69;76.53
69225;DHT22;56333;51.306;17.056;2024-02-23T03:23:45;10.70;76.57
69225;DHT22;56333;51.306;17.056;2024-02-23T03:25:13;10.73;76.50
69225;DHT22;56333;51.306;17.056;2024-02-23T03:26:42;10.72;76.53
69225;DHT22;56333;51.306;17.056;2024-02-23T03:28:10;10.73;76.40
69225;DHT22;56333;51.306;17.056;2024-02-23T03:29:40;10.73;76.28
69225;DHT22;56333;51.306;17.056;2024-02-23T03:31:08;10.71;76.25
69225;DHT22;56333;51.306;17.056;2024-02-23T03:32:37;10.68;76.25
69225;DHT22;56333;51.306;17.056;2024-02-23T03:34:06;10.69;76.30
69225;DHT22;56333;51.306;17.056;2024-02-23T03:35:35;10.69;76.38
69225;DHT22;56333;51.306;17.056;2024-02-23T03:37:03;10.68;76.40
69225;DHT22;56333;51.306;17.056;2024-02-23T03:38:32;10.68;76.50
69225;DHT22;56333;51.306;17.056;2024-02-23T03:40:00;10.65;76.55
69225;DHT22;56333;51.306;17.056;2024-02-23T03:41:30;10.65;76.57
69225;DHT22;56333;51.306;17.056;2024-02-23T03:42:59;10.63;76.75
69225;DHT22;56333;51.306;17.056;2024-02-23T03:44:27;10.63;76.78
69225;DHT22;56333;51.306;17.056;2024-02-23T03:45:56;10.62;76.80
69225;DHT22;56333;51.306;17.056;2024-02-23T03:47:24;10.63;76.82
69225;DHT22;56333;51.306;17.056;2024-02-23T03:48:53;10.63;76.80
69225;DHT22;56333;51.306;17.056;2024-02-23T03:50:22;10.60;76.90
69225;DHT22;56333;51.306;17.056;2024-02-23T03:51:51;10.61;76.80
69225;DHT22;56333;51.306;17.056;2024-02-23T03:53:21;10.59;76.80
69225;DHT22;56333;51.306;17.056;2024-02-23T03:54:49;10.59;76.80
69225;DHT22;56333;51.306;17.056;2024-02-23T03:56:18;10.59;76.80
69225;DHT22;56333;51.306;17.056;2024-02-23T03:57:47;10.58;76.80
69225;DHT22;56333;51.306;17.056;2024-02-23T03:59:15;10.57;76.78
69225;DHT22;56333;51.306;17.056;2024-02-23T04:00:45;10.59;76.78
69225;DHT22;56333;51.306;17.056;2024-02-23T04:02:13;10.59;76.68
69225;DHT22;56333;51.306;17.056;2024-02-23T04:03:42;10.57;76.70
69225;DHT22;56333;51.306;17.056;2024-02-23T04:05:10;10.58;76.70
69225;DHT22;56333;51.306;17.056;2024-02-23T04:06:40;10.57;76.60
69225;DHT22;56333;51.306;17.056;2024-02-23T04:08:08;10.58;76.55
69225;DHT22;56333;51.306;17.056;2024-02-23T04:09:36;10.58;76.60
69225;DHT22;56333;51.306;17.056;2024-02-23T04:11:05;10.60;76.60
69225;DHT22;56333;51.306;17.056;2024-02-23T04:12:34;10.60;76.53
69225;DHT22;56333;51.306;17.056;2024-02-23T04:14:02;10.61;76.30
69225;DHT22;56333;51.306;17.056;2024-02-23T04:15:31;10.60;76.25
69225;DHT22;56333;51.306;17.056;2024-02-23T04:16:59;10.57;76.32
69225;DHT22;56333;51.306;17.056;2024-02-23T04:18:28;10.56;76.30
69225;DHT22;56333;51.306;17.056;2024-02-23T04:19:57;10.57;76.32
69225;DHT22;56333;51.306;17.056;2024-02-23T04:21:33;10.59;76.35
69225;DHT22;56333;51.306;17.056;2024-02-23T04:23:01;10.59;76.35
69225;DHT22;56333;51.306;17.056;2024-02-23T04:24:30;10.60;76.30
69225;DHT22;56333;51.306;17.056;2024-02-23T04:26:00;10.60;76.18
69225;DHT22;56333;51.306;17.056;2024-02-23T04:27:28;10.60;76.13
69225;DHT22;56333;51.306;17.056;2024-02-23T04:28:57;10.63;76.07
69225;DHT22;56333;51.306;17.056;2024-02-23T04:30:25;10.63;76.03
69225;DHT22;56333;51.306;17.056;2024-02-23T04:31:54;10.65;76.00
69225;DHT22;56333;51.306;17.056;2024-02-23T04:33:22;10.65;75.97
69225;DHT22;56333;51.306;17.056;2024-02-23T04:34:50;10.68;75.85
69225;DHT22;56333;51.306;17.056;2024-02-23T04:36:21;10.70;75.70
69225;DHT22;56333;51.306;17.056;2024-02-23T04:37:50;10.72;75.68
69225;DHT22;56333;51.306;17.056;2024-02-23T04:39:18;10.74;75.60
69225;DHT22;56333;51.306;17.056;2024-02-23T04:40:46;10.76;75.55
69225;DHT22;56333;51.306;17.056;2024-02-23T04:42:15;10.77;75.47
69225;DHT22;56333;51.306;17.056;2024-02-23T04:43:43;10.79;75.40
69225;DHT22;56333;51.306;17.056;2024-02-23T04:45:12;10.82;75.32
69225;DHT22;56333;51.306;17.056;2024-02-23T04:46:40;10.85;75.32
69225;DHT22;56333;51.306;17.056;2024-02-23T04:48:09;10.87;75.25
69225;DHT22;56333;51.306;17.056;2024-02-23T04:49:38;10.91;75.05
69225;DHT22;56333;51.306;17.056;2024-02-23T04:51:07;10.94;75.00
69225;DHT22;56333;51.306;17.056;2024-02-23T04:52:35;10.95;74.82
69225;DHT22;56333;51.306;17.056;2024-02-23T04:54:04;10.98;74.85
69225;DHT22;56333;51.306;17.056;2024-02-23T04:55:32;11.00;74.85
69225;DHT22;56333;51.306;17.056;2024-02-23T04:57:01;11.02;74.72
69225;DHT22;56333;51.306;17.056;2024-02-23T04:58:30;11.05;74.63
69225;DHT22;56333;51.306;17.056;2024-02-23T04:59:58;11.04;74.57
69225;DHT22;56333;51.306;17.056;2024-02-23T05:01:27;11.03;74.50
69225;DHT22;56333;51.306;17.056;2024-02-23T05:03:00;11.03;74.55
69225;DHT22;56333;51.306;17.056;2024-02-23T05:04:30;11.02;74.65
69225;DHT22;56333;51.306;17.056;2024-02-23T05:05:59;11.01;74.60
69225;DHT22;56333;51.306;17.056;2024-02-23T05:07:27;10.99;74.65
69225;DHT22;56333;51.306;17.056;2024-02-23T05:08:56;11.00;74.63
69225;DHT22;56333;51.306;17.056;2024-02-23T05:10:25;10.99;74.60
69225;DHT22;56333;51.306;17.056;2024-02-23T05:11:55;11.00;74.65
69225;DHT22;56333;51.306;17.056;2024-02-23T05:13:23;11.00;74.65
69225;DHT22;56333;51.306;17.056;2024-02-23T05:14:52;10.99;74.65
69225;DHT22;56333;51.306;17.056;2024-02-23T05:16:20;10.98;74.70
69225;DHT22;56333;51.306;17.056;2024-02-23T05:17:48;10.99;74.80
69225;DHT22;56333;51.306;17.056;2024-02-23T05:19:17;10.97;74.68
69225;DHT22;56333;51.306;17.056;2024-02-23T05:20:45;10.97;74.70
69225;DHT22;56333;51.306;17.056;2024-02-23T05:22:14;10.98;74.82
69225;DHT22;56333;51.306;17.056;2024-02-23T05:23:44;10.98;74.82
69225;DHT22;56333;51.306;17.056;2024-02-23T05:25:13;11.00;74.88
69225;DHT22;56333;51.306;17.056;2024-02-23T05:26:41;11.01;74.90
69225;DHT22;56333;51.306;17.056;2024-02-23T05:28:10;11.02;74.80
69225;DHT22;56333;51.306;17.056;2024-02-23T05:29:40;11.02;74.82
69225;DHT22;56333;51.306;17.056;2024-02-23T05:31:10;11.03;74.75
69225;DHT22;56333;51.306;17.056;2024-02-23T05:32:38;11.03;74.68
69225;DHT22;56333;51.306;17.056;2024-02-23T05:34:07;11.01;74.65
69225;DHT22;56333;51.306;17.056;2024-02-23T05:35:35;10.98;74.65
69225;DHT22;56333;51.306;17.056;2024-02-23T05:37:04;10.95;74.68
69225;DHT22;56333;51.306;17.056;2024-02-23T05:38:32;10.91;74.78
69225;DHT22;56333;51.306;17.056;2024-02-23T05:40:01;10.88;74.82
69225;DHT22;56333;51.306;17.056;2024-02-23T05:41:35;10.84;74.95
69225;DHT22;56333;51.306;17.056;2024-02-23T05:43:04;10.84;75.05
69225;DHT22;56333;51.306;17.056;2024-02-23T05:44:32;10.80;75.13
69225;DHT22;56333;51.306;17.056;2024-02-23T05:46:00;10.79;75.10
69225;DHT22;56333;51.306;17.056;2024-02-23T05:47:29;10.78;75.18
69225;DHT22;56333;51.306;17.056;2024-02-23T05:48:58;10.79;75.15
69225;DHT22;56333;51.306;17.056;2024-02-23T05:50:27;10.77;75.20
69225;DHT22;56333;51.306;17.056;2024-02-23T05:51:56;10.77;75.13
69225;DHT22;56333;51.306;17.056;2024-02-23T05:53:25;10.76;75.20
69225;DHT22;56333;51.306;17.056;2024-02-23T05:54:57;10.73;75.25
69225;DHT22;56333;51.306;17.056;2024-02-23T05:56:25;10.75;75.25
69225;DHT22;56333;51.306;17.056;2024-02-23T05:57:54;10.73;75.30
69225;DHT22;56333;51.306;17.056;2024-02-23T05:59:22;10.72;75.28
69225;DHT22;56333;51.306;17.056;2024-02-23T06:00:51;10.73;75.20
69225;DHT22;56333;51.306;17.056;2024-02-23T06:02:20;10.73;75.22
69225;DHT22;56333;51.306;17.056;2024-02-23T06:03:49;10.70;75.32
69225;DHT22;56333;51.306;17.056;2024-02-23T06:05:19;10.71;75.30
69225;DHT22;56333;51.306;17.056;2024-02-23T06:06:47;10.73;75.35
69225;DHT22;56333;51.306;17.056;2024-02-23T06:08:16;10.72;75.32
69225;DHT22;56333;51.306;17.056;2024-02-23T06:09:44;10.73;75.30
69225;DHT22;56333;51.306;17.056;2024-02-23T06:11:13;10.73;75.30
69225;DHT22;56333;51.306;17.056;2024-02-23T06:12:41;10.73;75.30
69225;DHT22;56333;51.306;17.056;2024-02-23T06:14:10;10.70;75.32
69225;DHT22;56333;51.306;17.056;2024-02-23T06:15:38;10.70;75.38
69225;DHT22;56333;51.306;17.056;2024-02-23T06:17:07;10.67;75.43
69225;DHT22;56333;51.306;17.056;2024-02-23T06:18:36;10.69;75.40
69225;DHT22;56333;51.306;17.056;2024-02-23T06:20:07;10.68;75.40
69225;DHT22;56333;51.306;17.056;2024-02-23T06:21:38;10.70;75.40
69225;DHT22;56333;51.306;17.056;2024-02-23T06:23:06;10.69;75.43
69225;DHT22;56333;51.306;17.056;2024-02-23T06:24:35;10.70;75.43
69225;DHT22;56333;51.306;17.056;2024-02-23T06:26:04;10.72;75.40
69225;DHT22;56333;51.306;17.056;2024-02-23T06:27:32;10.73;75.38
69225;DHT22;56333;51.306;17.056;2024-02-23T06:29:02;10.75;75.30
69225;DHT22;56333;51.306;17.056;2024-02-23T06:30:32;10.77;75.18
69225;DHT22;56333;51.306;17.056;2024-02-23T06:32:01;10.77;75.13
69225;DHT22;56333;51.306;17.056;2024-02-23T06:33:30;10.77;75.05
69225;DHT22;56333;51.306;17.056;2024-02-23T06:34:59;10.77;75.07
69225;DHT22;56333;51.306;17.056;2024-02-23T06:36:30;10.81;75.07
69225;DHT22;56333;51.306;17.056;2024-02-23T06:37:58;10.82;75.00
69225;DHT22;56333;51.306;17.056;2024-02-23T06:39:27;10.82;74.97
69225;DHT22;56333;51.306;17.056;2024-02-23T06:40:56;10.81;74.85
69225;DHT22;56333;51.306;17.056;2024-02-23T06:42:24;10.84;74.90
69225;DHT22;56333;51.306;17.056;2024-02-23T06:43:53;10.84;74.90
69225;DHT22;56333;51.306;17.056;2024-02-23T06:45:21;10.85;74.93
69225;DHT22;56333;51.306;17.056;2024-02-23T06:46:50;10.86;74.90
69225;DHT22;56333;51.306;17.056;2024-02-23T06:48:18;10.88;74.90
69225;DHT22;56333;51.306;17.056;2024-02-23T06:49:48;10.88;74.88
69225;DHT22;56333;51.306;17.056;2024-02-23T06:51:16;10.90;74.90
69225;DHT22;56333;51.306;17.056;2024-02-23T06:52:45;10.91;74.80
69225;DHT22;56333;51.306;17.056;2024-02-23T06:54:14;10.92;74.70
69225;DHT22;56333;51.306;17.056;2024-02-23T06:55:42;10.91;74.68
69225;DHT22;56333;51.306;17.056;2024-02-23T06:57:10;10.90;74.63
69225;DHT22;56333;51.306;17.056;2024-02-23T06:58:39;10.89;74.68
69225;DHT22;56333;51.306;17.056;2024-02-23T07:00:10;10.90;74.70
69225;DHT22;56333;51.306;17.056;2024-02-23T07:01:50;10.90;74.75
69225;DHT22;56333;51.306;17.056;2024-02-23T07:03:19;10.90;74.80
69225;DHT22;56333;51.306;17.056;2024-02-23T07:04:48;10.90;74.70
69225;DHT22;56333;51.306;17.056;2024-02-23T07:06:18;10.92;74.70
69225;DHT22;56333;51.306;17.056;2024-02-23T07:07:47;10.93;74.68
69225;DHT22;56333;51.306;17.056;2024-02-23T07:09:15;10.95;74.78
69225;DHT22;56333;51.306;17.056;2024-02-23T07:10:45;10.98;74.75
69225;DHT22;56333;51.306;17.056;2024-02-23T07:12:14;11.01;74.68
69225;DHT22;56333;51.306;17.056;2024-02-23T07:13:45;11.03;74.45
69225;DHT22;56333;51.306;17.056;2024-02-23T07:15:13;11.03;74.32
69225;DHT22;56333;51.306;17.056;2024-02-23T07:16:42;11.03;74.32
69225;DHT22;56333;51.306;17.056;2024-02-23T07:18:11;11.05;74.25
69225;DHT22;56333;51.306;17.056;2024-02-23T07:19:40;11.04;74.20
69225;DHT22;56333;51.306;17.056;2024-02-23T07:21:08;11.06;74.25
69225;DHT22;56333;51.306;17.056;2024-02-23T07:22:37;11.07;74.28
69225;DHT22;56333;51.306;17.056;2024-02-23T07:24:09;11.07;74.30
69225;DHT22;56333;51.306;17.056;2024-02-23T07:25:38;11.09;74.18
69225;DHT22;56333;51.306;17.056;2024-02-23T07:27:07;11.08;74.28
69225;DHT22;56333;51.306;17.056;2024-02-23T07:28:36;11.10;74.28
69225;DHT22;56333;51.306;17.056;2024-02-23T07:30:07;11.11;74.18
69225;DHT22;56333;51.306;17.056;2024-02-23T07:31:38;11.11;74.10
69225;DHT22;56333;51.306;17.056;2024-02-23T07:33:06;11.11;74.03
69225;DHT22;56333;51.306;17.056;2024-02-23T07:34:35;11.14;73.72
69225;DHT22;56333;51.306;17.056;2024-02-23T07:36:04;11.11;73.68
69225;DHT22;56333;51.306;17.056;2024-02-23T07:37:35;11.11;73.63
69225;DHT22;56333;51.306;17.056;2024-02-23T07:39:05;11.10;73.63
69225;DHT22;56333;51.306;17.056;2024-02-23T07:40:33;11.11;73.57
69225;DHT22;56333;51.306;17.056;2024-02-23T07:42:05;11.12;73.60
69225;DHT22;56333;51.306;17.056;2024-02-23T07:43:34;11.11;73.65
69225;DHT22;56333;51.306;17.056;2024-02-23T07:45:03;11.14;73.60
69225;DHT22;56333;51.306;17.056;2024-02-23T07:46:34;11.13;73.60
69225;DHT22;56333;51.306;17.056;2024-02-23T07:48:01;11.12;73.68
69225;DHT22;56333;51.306;17.056;2024-02-23T07:49:32;11.13;73.68
69225;DHT22;56333;51.306;17.056;2024-02-23T07:51:01;11.16;73.68
69225;DHT22;56333;51.306;17.056;2024-02-23T07:52:30;11.18;73.47
69225;DHT22;56333;51.306;17.056;2024-02-23T07:53:59;11.20;73.32
69225;DHT22;56333;51.306;17.056;2024-02-23T07:55:27;11.20;73.07
69225;DHT22;56333;51.306;17.056;2024-02-23T07:56:56;11.21;73.10
69225;DHT22;56333;51.306;17.056;2024-02-23T07:58:24;11.21;72.85
69225;DHT22;56333;51.306;17.056;2024-02-23T07:59:53;11.21;72.65
69225;DHT22;56333;51.306;17.056;2024-02-23T08:01:21;11.19;72.43
69225;DHT22;56333;51.306;17.056;2024-02-23T08:02:49;11.17;72.43
69225;DHT22;56333;51.306;17.056;2024-02-23T08:04:21;11.18;72.53
69225;DHT22;56333;51.306;17.056;2024-02-23T08:05:49;11.18;72.47
69225;DHT22;56333;51.306;17.056;2024-02-23T08:07:18;11.21;72.32
69225;DHT22;56333;51.306;17.056;2024-02-23T08:08:47;11.22;72.32
69225;DHT22;56333;51.306;17.056;2024-02-23T08:10:17;11.23;72.30
69225;DHT22;56333;51.306;17.056;2024-02-23T08:11:46;11.26;72.20
69225;DHT22;56333;51.306;17.056;2024-02-23T08:13:15;11.28;72.00
69225;DHT22;56333;51.306;17.056;2024-02-23T08:14:43;11.28;71.65
69225;DHT22;56333;51.306;17.056;2024-02-23T08:16:15;11.28;71.53
69225;DHT22;56333;51.306;17.056;2024-02-23T08:17:44;11.27;70.10
69225;DHT22;56333;51.306;17.056;2024-02-23T08:19:12;11.28;70.13
69225;DHT22;56333;51.306;17.056;2024-02-23T08:20:41;11.29;69.47
69225;DHT22;56333;51.306;17.056;2024-02-23T08:22:10;11.30;69.13
69225;DHT22;56333;51.306;17.056;2024-02-23T08:23:38;11.31;68.97
69225;DHT22;56333;51.306;17.056;2024-02-23T08:25:08;11.31;67.63
69225;DHT22;56333;51.306;17.056;2024-02-23T08:26:36;11.31;68.28
69225;DHT22;56333;51.306;17.056;2024-02-23T08:28:07;11.31;67.57
69225;DHT22;56333;51.306;17.056;2024-02-23T08:29:38;11.33;67.90
69225;DHT22;56333;51.306;17.056;2024-02-23T08:31:07;11.34;67.45
69225;DHT22;56333;51.306;17.056;2024-02-23T08:32:36;11.35;67.88
69225;DHT22;56333;51.306;17.056;2024-02-23T08:34:04;11.36;67.68
69225;DHT22;56333;51.306;17.056;2024-02-23T08:35:33;11.38;67.45
69225;DHT22;56333;51.306;17.056;2024-02-23T08:37:01;11.39;67.38
69225;DHT22;56333;51.306;17.056;2024-02-23T08:38:30;11.40;66.00
69225;DHT22;56333;51.306;17.056;2024-02-23T08:39:59;11.40;63.47
69225;DHT22;56333;51.306;17.056;2024-02-23T08:41:30;11.39;64.13
69225;DHT22;56333;51.306;17.056;2024-02-23T08:42:59;11.39;64.20
69225;DHT22;56333;51.306;17.056;2024-02-23T08:44:28;11.38;61.22
69225;DHT22;56333;51.306;17.056;2024-02-23T08:45:57;11.39;60.80
69225;DHT22;56333;51.306;17.056;2024-02-23T08:47:25;11.39;61.67
69225;DHT22;56333;51.306;17.056;2024-02-23T08:48:56;11.38;61.53
69225;DHT22;56333;51.306;17.056;2024-02-23T08:50:24;11.39;60.83
69225;DHT22;56333;51.306;17.056;2024-02-23T08:51:53;11.36;59.25
69225;DHT22;56333;51.306;17.056;2024-02-23T08:53:23;11.36;58.83
69225;DHT22;56333;51.306;17.056;2024-02-23T08:54:52;11.35;58.58
69225;DHT22;56333;51.306;17.056;2024-02-23T08:56:20;11.35;59.65
69225;DHT22;56333;51.306;17.056;2024-02-23T08:57:50;11.35;58.38
69225;DHT22;56333;51.306;17.056;2024-02-23T08:59:19;11.32;57.97
69225;DHT22;56333;51.306;17.056;2024-02-23T09:00:48;11.31;58.80
69225;DHT22;56333;51.306;17.056;2024-02-23T09:02:16;11.28;58.25
69225;DHT22;56333;51.306;17.056;2024-02-23T09:03:45;11.27;58.08
69225;DHT22;56333;51.306;17.056;2024-02-23T09:05:14;11.24;58.50
69225;DHT22;56333;51.306;17.056;2024-02-23T09:06:42;11.22;58.83
69225;DHT22;56333;51.306;17.056;2024-02-23T09:08:13;11.21;58.25
69225;DHT22;56333;51.306;17.056;2024-02-23T09:09:41;11.18;58.50
69225;DHT22;56333;51.306;17.056;2024-02-23T09:11:10;11.16;57.70
69225;DHT22;56333;51.306;17.056;2024-02-23T09:12:39;11.11;57.22
69225;DHT22;56333;51.306;17.056;2024-02-23T09:14:07;11.08;57.00